Time;durP1;ratioP1;P1;durP2;ratioP2;P2;SDS_P1;SDS_P2;PMS_P1;PMS_P2;Temp;Humidity;BMP_temperature;BMP_pressure;BME280_temperature;BME280_humidity;BME280_pressure;Samples;Min_cycle;Max_cycle;Signal;HPM_P1;HPM_P2
2022/08/15 01:30:58;;;;;;;4.63;4.23;;;23.10;97.00;;;;;;5008898;23;20841;-67
2022/08/15 01:33:27;;;;;;;5.70;4.50;;;23.00;96.90;;;;;;4977670;28;20811;-65
2022/08/15 01:35:55;;;;;;;4.43;4.13;;;23.00;97.60;;;;;;4977684;28;20450;-65
2022/08/15 01:38:28;;;;;;;4.80;4.50;;;23.00;98.30;;;;;;4978381;28;20471;-65
2022/08/15 01:41:04;;;;;;;5.43;4.70;;;23.00;97.50;;;;;;4977632;28;20976;-65
2022/08/15 01:43:36;;;;;;;4.63;4.30;;;22.90;97.40;;;;;;4977669;28;20439;-65
2022/08/15 01:46:09;;;;;;;4.90;4.60;;;22.90;98.20;;;;;;4977601;28;20447;-65
2022/08/15 01:48:41;;;;;;;5.67;5.03;;;22.90;99.20;;;;;;4977368;28;20497;-66
2022/08/15 01:51:12;;;;;;;4.83;4.43;;;22.80;99.90;;;;;;4977457;28;20450;-66
2022/08/15 01:53:43;;;;;;;5.10;4.70;;;22.80;99.90;;;;;;4977206;28;20489;-65
2022/08/15 01:56:15;;;;;;;4.13;3.93;;;22.80;99.90;;;;;;4977321;28;20447;-65
2022/08/15 01:58:45;;;;;;;4.43;4.23;;;22.80;99.90;;;;;;4977210;28;20443;-65
2022/08/15 02:01:16;;;;;;;4.57;4.17;;;22.90;99.90;;;;;;4977166;28;20550;-65
2022/08/15 02:03:45;;;;;;;4.60;4.20;;;22.80;99.90;;;;;;4977372;28;20442;-65
2022/08/15 02:06:16;;;;;;;4.90;4.60;;;22.80;99.40;;;;;;4977426;28;20454;-65
2022/08/15 02:08:44;;;;;;;5.83;4.87;;;22.80;99.40;;;;;;4976701;28;20443;-66
2022/08/15 02:11:14;;;;;;;4.57;4.27;;;22.80;99.00;;;;;;4976768;28;20910;-66
2022/08/15 02:13:41;;;;;;;4.90;4.60;;;22.70;98.50;;;;;;4976957;28;20483;-66
2022/08/15 02:16:07;;;;;;;5.10;3.97;;;22.70;98.40;;;;;;4976903;28;20459;-66
2022/08/15 02:18:36;;;;;;;4.90;4.40;;;22.70;98.30;;;;;;4976846;28;20455;-66
2022/08/15 02:21:02;;;;;;;5.50;4.23;;;22.70;97.80;;;;;;4976902;28;20463;-65
2022/08/15 02:23:29;;;;;;;7.87;5.00;;;22.70;97.80;;;;;;4976864;28;20462;-65
2022/08/15 02:25:56;;;;;;;4.77;4.50;;;22.70;98.10;;;;;;4976559;28;20941;-65
2022/08/15 02:28:25;;;;;;;4.70;4.30;;;22.70;98.50;;;;;;4976745;28;20450;-66
2022/08/15 02:30:52;;;;;;;5.20;4.73;;;22.70;99.10;;;;;;4976209;28;20486;-65
2022/08/15 02:33:20;;;;;;;4.37;4.13;;;22.80;99.00;;;;;;4976258;28;21076;-66
2022/08/15 02:35:48;;;;;;;4.90;4.60;;;22.80;98.90;;;;;;4976550;28;20451;-66
2022/08/15 02:38:15;;;;;;;5.37;4.90;;;22.80;99.10;;;;;;4976546;28;20545;-66
2022/08/15 02:40:42;;;;;;;4.73;4.43;;;22.80;98.90;;;;;;4976341;28;20475;-66
2022/08/15 02:43:12;;;;;;;5.77;4.43;;;22.80;98.90;;;;;;4976355;28;20435;-65
2022/08/15 02:45:47;;;;;;;4.80;4.50;;;22.80;98.90;;;;;;4976419;28;20793;-65
2022/08/15 02:48:14;;;;;;;4.63;4.33;;;22.80;99.10;;;;;;4976450;28;20529;-65
2022/08/15 02:50:42;;;;;;;5.20;4.80;;;22.80;99.00;;;;;;4976289;28;20490;-65
2022/08/15 02:53:12;;;;;;;4.43;4.13;;;22.80;99.50;;;;;;4976071;28;20529;-66
2022/08/15 02:55:41;;;;;;;4.40;4.10;;;22.90;99.90;;;;;;4976268;28;20439;-65
2022/08/15 02:58:09;;;;;;;5.97;4.83;;;22.90;99.60;;;;;;4975883;28;20992;-65
2022/08/15 03:00:36;;;;;;;5.30;4.90;;;22.90;99.40;;;;;;4976032;28;20506;-65
2022/08/15 03:03:06;;;;;;;4.57;4.37;;;22.90;99.20;;;;;;4975834;28;20945;-66
2022/08/15 03:05:34;;;;;;;5.17;4.63;;;22.90;99.10;;;;;;4976166;28;20443;-65
2022/08/15 03:08:01;;;;;;;5.00;4.70;;;22.90;99.00;;;;;;4975706;28;20942;-66
2022/08/15 03:10:29;;;;;;;5.00;4.60;;;22.90;99.30;;;;;;4975784;28;20481;-66
2022/08/15 03:12:59;;;;;;;4.83;4.43;;;22.90;99.60;;;;;;4975406;28;20489;-66
2022/08/15 03:15:31;;;;;;;6.83;4.87;;;22.90;99.60;;;;;;4975583;28;20824;-66
2022/08/15 03:17:59;;;;;;;7.10;4.80;;;22.90;99.70;;;;;;4975517;28;20928;-66
2022/08/15 03:20:27;;;;;;;7.00;5.30;;;22.80;99.90;;;;;;4979779;28;20478;-66
2022/08/15 03:22:53;;;;;;;5.77;5.03;;;22.70;99.90;;;;;;4983653;28;20505;-66
2022/08/15 03:25:24;;;;;;;5.53;5.07;;;22.70;99.90;;;;;;4982233;28;20462;-66
2022/08/15 03:27:52;;;;;;;5.03;4.53;;;22.60;99.90;;;;;;4982394;28;20542;-66
2022/08/15 03:30:19;;;;;;;5.77;5.37;;;22.50;99.90;;;;;;4976008;28;20597;-66
2022/08/15 03:32:48;;;;;;;5.73;5.33;;;22.50;99.90;;;;;;4975123;28;20964;-66
2022/08/15 03:35:14;;;;;;;4.87;4.47;;;22.40;99.90;;;;;;4975782;28;20455;-66
2022/08/15 03:37:42;;;;;;;5.77;5.27;;;22.40;99.90;;;;;;4975653;28;20451;-66
2022/08/15 03:40:10;;;;;;;4.80;4.40;;;22.40;99.90;;;;;;4975253;28;20502;-66
2022/08/15 03:42:37;;;;;;;5.20;4.40;;;22.40;99.90;;;;;;4975124;28;21040;-66
2022/08/15 03:45:11;;;;;;;5.30;4.70;;;22.40;99.90;;;;;;4975395;28;20454;-66
2022/08/15 03:47:38;;;;;;;4.83;4.33;;;22.30;99.90;;;;;;4975287;28;20494;-66
2022/08/15 03:50:06;;;;;;;4.70;4.20;;;22.30;99.90;;;;;;4975141;28;20474;-66
2022/08/15 03:52:33;;;;;;;5.03;4.57;;;22.30;99.90;;;;;;4975248;28;20455;-65
2022/08/15 03:55:01;;;;;;;4.53;4.13;;;22.30;99.90;;;;;;4975101;28;20985;-66
2022/08/15 03:57:28;;;;;;;4.60;3.83;;;22.30;99.90;;;;;;4975188;28;20809;-66
2022/08/15 03:59:54;;;;;;;5.23;4.10;;;22.30;99.90;;;;;;4974700;28;21012;-67
2022/08/15 04:02:25;;;;;;;4.97;3.97;;;22.30;99.90;;;;;;4975071;28;20465;-67
2022/08/15 04:04:52;;;;;;;4.07;3.77;;;22.30;99.90;;;;;;4975156;28;20439;-67
2022/08/15 04:07:19;;;;;;;4.87;4.20;;;22.30;99.90;;;;;;4974957;28;20466;-67
2022/08/15 04:09:46;;;;;;;4.00;3.70;;;22.20;99.90;;;;;;4974978;28;20470;-66
2022/08/15 04:12:12;;;;;;;4.20;3.90;;;22.20;99.90;;;;;;4974956;28;20459;-66
2022/08/15 04:14:39;;;;;;;4.97;3.80;;;22.20;99.90;;;;;;4974695;28;20821;-66
2022/08/15 04:17:06;;;;;;;4.33;3.83;;;22.20;99.90;;;;;;4974752;28;20455;-66
2022/08/15 04:19:34;;;;;;;3.67;3.33;;;22.20;99.90;;;;;;4974898;28;20475;-66
2022/08/15 04:22:03;;;;;;;5.00;3.50;;;22.20;99.90;;;;;;4974470;28;20462;-66
2022/08/15 04:24:30;;;;;;;4.40;4.00;;;22.20;99.90;;;;;;4975182;28;20875;-66
2022/08/15 04:26:57;;;;;;;4.67;3.50;;;22.20;99.90;;;;;;4978911;28;20458;-66
2022/08/15 04:29:24;;;;;;;5.50;3.43;;;22.10;99.90;;;;;;4978478;28;20495;-66
2022/08/15 04:31:50;;;;;;;4.53;4.13;;;22.10;99.90;;;;;;4978856;28;20458;-66
2022/08/15 04:34:17;;;;;;;5.23;3.47;;;22.20;99.90;;;;;;4979413;28;20469;-66
2022/08/15 04:36:46;;;;;;;4.17;3.87;;;22.10;99.90;;;;;;4978630;28;20946;-65
2022/08/15 04:39:13;;;;;;;3.50;3.30;;;22.10;99.90;;;;;;4978829;28;20478;-65
2022/08/15 04:41:40;;;;;;;4.00;3.70;;;22.10;99.90;;;;;;4978613;28;20454;-65
2022/08/15 04:44:06;;;;;;;3.90;3.43;;;22.00;99.90;;;;;;4978632;28;20457;-67
2022/08/15 04:46:33;;;;;;;3.83;3.53;;;22.00;99.90;;;;;;4978732;28;20461;-66
2022/08/15 04:49:00;;;;;;;4.93;3.70;;;22.10;99.90;;;;;;4978488;28;20478;-66
2022/08/15 04:51:27;;;;;;;4.00;3.47;;;22.00;99.90;;;;;;4978465;28;20459;-67
2022/08/15 04:53:55;;;;;;;6.87;4.27;;;22.00;99.90;;;;;;4978306;28;20486;-66
2022/08/15 04:56:22;;;;;;;3.90;3.60;;;21.90;99.90;;;;;;4978326;28;20458;-67
2022/08/15 04:58:49;;;;;;;3.73;3.43;;;21.90;99.90;;;;;;4977861;28;20961;-66
2022/08/15 05:01:15;;;;;;;4.13;3.73;;;21.90;99.90;;;;;;4978332;28;20455;-67
2022/08/15 05:03:43;;;;;;;4.97;4.23;;;21.90;99.90;;;;;;4977904;28;20960;-67
2022/08/15 05:06:11;;;;;;;6.23;3.67;;;21.90;99.90;;;;;;4978207;28;20454;-67
2022/08/15 05:08:40;;;;;;;4.30;3.90;;;21.90;99.90;;;;;;4978055;28;20459;-67
2022/08/15 05:11:10;;;;;;;4.80;4.40;;;21.90;99.90;;;;;;4978952;28;20799;-66
2022/08/15 05:13:39;;;;;;;4.87;4.37;;;21.90;99.90;;;;;;4978178;28;20470;-66
2022/08/15 05:16:08;;;;;;;3.97;3.77;;;22.00;99.90;;;;;;4977772;28;20968;-66
2022/08/15 05:18:36;;;;;;;6.33;3.70;;;21.90;99.90;;;;;;4977977;28;20490;-66
2022/08/15 05:21:03;;;;;;;3.90;3.60;;;21.90;99.90;;;;;;4977725;28;20461;-66
2022/08/15 05:23:31;;;;;;;3.50;3.30;;;22.00;99.90;;;;;;4978088;28;20451;-66
2022/08/15 05:26:00;;;;;;;5.20;3.13;;;21.90;99.90;;;;;;4977852;28;20461;-67
2022/08/15 05:28:29;;;;;;;3.33;2.93;;;21.90;99.90;;;;;;4977825;28;20787;-66
2022/08/15 05:30:58;;;;;;;3.00;2.80;;;21.90;99.90;;;;;;4977493;28;20486;-66
2022/08/15 05:33:27;;;;;;;3.87;3.60;;;21.90;99.90;;;;;;4977405;28;20458;-66
2022/08/15 05:35:56;;;;;;;3.90;3.20;;;22.00;99.90;;;;;;4977657;28;20558;-66
2022/08/15 05:38:26;;;;;;;4.23;3.47;;;22.10;99.90;;;;;;4977268;28;20462;-67
2022/08/15 05:41:15;;;;;;;3.70;2.70;;;22.10;99.90;;;;;;4977575;28;20478;-67
2022/08/15 05:43:52;;;;;;;5.13;2.70;;;22.10;99.90;;;;;;4977788;28;20435;-67
2022/08/15 05:46:24;;;;;;;7.77;2.80;;;22.10;99.90;;;;;;4977850;28;20446;-67
2022/08/15 05:48:59;;;;;;;5.73;3.03;;;22.20;99.90;;;;;;4977694;28;20846;-66
2022/08/15 05:51:33;;;;;;;3.00;2.70;;;22.10;99.90;;;;;;4977521;28;20434;-68
2022/08/15 05:54:15;;;;;;;2.87;2.70;;;22.10;99.90;;;;;;4977203;28;20467;-66
2022/08/15 05:56:50;;;;;;;3.20;2.90;;;22.10;99.90;;;;;;4977256;28;20443;-67
2022/08/15 05:59:20;;;;;;;3.77;3.47;;;22.10;99.90;;;;;;4977273;28;20478;-67
2022/08/15 06:01:50;;;;;;;2.87;2.50;;;22.20;99.90;;;;;;4977429;28;20439;-67
2022/08/15 06:04:21;;;;;;;2.93;2.70;;;22.30;99.90;;;;;;4977178;28;20439;-67
2022/08/15 06:06:50;;;;;;;3.03;2.73;;;22.40;99.90;;;;;;4977175;28;20439;-67
2022/08/15 06:09:33;;;;;;;4.87;2.90;;;22.40;99.90;;;;;;4977577;28;20474;-67
2022/08/15 06:12:05;;;;;;;3.10;2.80;;;22.50;99.90;;;;;;4977522;28;20443;-67
2022/08/15 06:14:38;;;;;;;3.53;3.23;;;22.60;99.90;;;;;;4976984;28;20474;-67
2022/08/15 06:17:10;;;;;;;3.07;2.87;;;22.60;99.90;;;;;;4976986;28;20442;-67
2022/08/15 06:19:41;;;;;;;2.60;2.40;;;22.70;99.90;;;;;;4976473;28;20826;-67
2022/08/15 06:22:21;;;;;;;3.30;3.00;;;22.70;99.90;;;;;;4976906;28;20538;-67
2022/08/15 06:24:56;;;;;;;4.37;2.73;;;22.70;99.90;;;;;;4976538;28;20805;-66
2022/08/15 06:27:34;;;;;;;2.93;2.60;;;22.70;99.90;;;;;;4976467;28;20854;-66
2022/08/15 06:30:08;;;;;;;4.03;3.67;;;22.70;99.90;;;;;;4976324;28;20485;-66
2022/08/15 06:32:41;;;;;;;6.10;2.40;;;22.70;99.90;;;;;;4976900;28;20434;-66
2022/08/15 06:35:18;;;;;;;3.87;2.70;;;22.90;99.90;;;;;;4976409;28;20463;-66
2022/08/15 06:37:57;;;;;;;2.80;2.60;;;23.00;99.90;;;;;;4976329;28;20906;-67
2022/08/15 06:40:31;;;;;;;2.83;2.63;;;23.00;99.90;;;;;;4976433;28;20474;-66
2022/08/15 06:42:58;;;;;;;2.90;2.60;;;22.90;99.90;;;;;;4976471;28;20442;-66
2022/08/15 06:45:30;;;;;;;4.63;4.20;;;22.90;99.90;;;;;;4976435;28;20454;-66
2022/08/15 06:48:03;;;;;;;4.10;3.37;;;22.90;99.90;;;;;;4975851;28;20876;-66
2022/08/15 06:50:33;;;;;;;3.00;2.80;;;22.80;99.90;;;;;;4975930;28;20529;-66
2022/08/15 06:53:07;;;;;;;2.67;2.57;;;22.90;99.90;;;;;;4976380;28;20439;-66
2022/08/15 06:55:46;;;;;;;7.93;3.03;;;22.90;99.90;;;;;;4976216;28;20485;-66
2022/08/15 06:58:20;;;;;;;2.60;2.30;;;22.90;99.90;;;;;;4976285;28;20443;-65
2022/08/15 07:00:54;;;;;;;2.70;2.60;;;22.80;99.90;;;;;;4975788;28;20906;-71
2022/08/15 07:03:32;;;;;;;3.33;3.03;;;22.80;99.90;;;;;;4976254;28;20450;-68
2022/08/15 07:05:59;;;;;;;3.43;3.00;;;22.80;99.90;;;;;;4976085;28;20526;-68
2022/08/15 07:08:34;;;;;;;3.03;2.73;;;22.80;99.90;;;;;;4976156;28;20490;-68
2022/08/15 07:11:09;;;;;;;2.77;2.53;;;22.80;99.90;;;;;;4975781;28;20438;-68
2022/08/15 07:13:46;;;;;;;4.43;3.07;;;23.00;99.90;;;;;;4976225;28;20450;-68
2022/08/15 07:16:20;;;;;;;2.53;2.43;;;23.20;99.90;;;;;;4975900;28;20500;-68
2022/08/15 07:18:50;;;;;;;2.80;2.60;;;23.40;99.90;;;;;;4975857;28;20446;-68
2022/08/15 07:21:22;;;;;;;3.20;3.00;;;23.70;99.90;;;;;;4976126;28;20449;-67
2022/08/15 07:24:05;;;;;;;2.90;2.70;;;24.00;99.90;;;;;;4975727;28;20800;-67
2022/08/15 07:26:41;;;;;;;3.03;2.70;;;24.20;99.90;;;;;;4975568;28;20443;-67
2022/08/15 07:29:11;;;;;;;3.00;2.77;;;24.30;99.90;;;;;;4975145;28;20485;-67
2022/08/15 07:31:43;;;;;;;3.30;2.90;;;24.50;99.90;;;;;;4975238;28;21018;-67
2022/08/15 07:34:18;;;;;;;2.87;2.63;;;25.00;99.90;;;;;;4975471;28;20562;-65
2022/08/15 07:36:54;;;;;;;4.83;2.73;;;25.10;99.90;;;;;;4975192;28;20814;-66
2022/08/15 07:39:25;;;;;;;9.83;3.20;;;25.00;99.90;;;;;;4975422;28;20480;-66
2022/08/15 07:41:52;;;;;;;8.87;2.70;;;25.00;99.90;;;;;;4975223;28;20906;-66
2022/08/15 07:44:23;;;;;;;4.97;2.30;;;24.90;99.90;;;;;;4975309;28;20454;-66
2022/08/15 07:46:58;;;;;;;5.73;2.60;;;25.00;99.90;;;;;;4975531;28;20458;-68
2022/08/15 07:49:28;;;;;;;4.20;2.03;;;25.40;99.90;;;;;;4975247;28;20486;-67
2022/08/15 07:52:02;;;;;;;3.57;2.47;;;26.00;98.90;;;;;;4974835;28;20458;-65
2022/08/15 07:54:32;;;;;;;3.10;2.90;;;26.90;96.60;;;;;;4975360;28;20537;-67
2022/08/15 07:57:01;;;;;;;5.07;2.80;;;27.80;93.80;;;;;;4975207;28;20450;-67
2022/08/15 07:59:31;;;;;;;2.50;2.30;;;28.70;90.40;;;;;;4975451;28;20493;-68
2022/08/15 08:02:08;;;;;;;2.57;2.40;;;29.40;87.50;;;;;;4975584;28;20454;-67
2022/08/15 08:04:36;;;;;;;2.93;2.73;;;30.30;82.90;;;;;;4975606;28;20438;-67
2022/08/15 08:07:07;;;;;;;2.47;2.27;;;31.20;76.50;;;;;;4975441;28;20509;-67
2022/08/15 08:09:41;;;;;;;2.37;2.17;;;31.80;71.50;;;;;;4974840;28;20478;-67
2022/08/15 08:12:21;;;;;;;2.70;1.90;;;32.10;67.90;;;;;;4975040;28;20514;-68
2022/08/15 08:15:01;;;;;;;3.80;2.97;;;32.60;69.70;;;;;;4975061;28;20617;-68
2022/08/15 08:17:33;;;;;;;13.67;2.90;;;33.10;65.40;;;;;;4974941;28;20533;-68
2022/08/15 08:20:06;;;;;;;5.10;3.10;;;33.80;63.50;;;;;;4975183;28;20474;-70
2022/08/15 08:22:42;;;;;;;7.70;2.60;;;34.20;59.90;;;;;;4974967;28;20532;-68
2022/08/15 08:25:15;;;;;;;4.47;2.40;;;33.90;59.90;;;;;;4974552;28;20906;-68
2022/08/15 08:27:51;;;;;;;2.83;2.57;;;33.40;59.60;;;;;;4974403;28;20791;-67
2022/08/15 08:30:23;;;;;;;3.00;2.70;;;32.60;60.90;;;;;;4974401;28;20910;-69
2022/08/15 08:32:57;;;;;;;2.90;2.70;;;31.50;63.40;;;;;;4974876;28;20447;-68
2022/08/15 08:35:34;;;;;;;3.00;2.70;;;30.70;67.00;;;;;;4974880;28;20516;-68
2022/08/15 08:38:15;;;;;;;2.80;2.60;;;30.20;69.20;;;;;;4974785;28;20438;-65
2022/08/15 08:43:46;;;;;;;3.60;2.40;;;29.60;75.70;;;;;;4974757;28;20422;-65
2022/08/15 08:46:23;;;;;;;4.87;3.30;;;30.50;70.50;;;;;;4974480;28;20899;-65
2022/08/15 08:49:03;;;;;;;3.17;2.87;;;31.00;68.60;;;;;;4977222;28;20443;-65
2022/08/15 08:51:39;;;;;;;2.97;2.87;;;31.70;67.50;;;;;;4976171;28;20497;-66
2022/08/15 08:54:12;;;;;;;7.50;3.17;;;32.20;65.80;;;;;;4975034;28;20438;-66
2022/08/15 08:56:44;;;;;;;3.40;3.20;;;32.30;65.10;;;;;;4975827;28;20431;-66
2022/08/15 08:59:18;;;;;;;2.70;2.60;;;32.00;65.10;;;;;;4974928;28;20570;-66
2022/08/15 09:01:49;;;;;;;3.33;2.83;;;31.60;66.70;;;;;;4974599;28;20438;-66
2022/08/15 09:04:21;;;;;;;3.77;2.90;;;31.30;68.20;;;;;;4974570;28;20533;-66
2022/08/15 09:06:50;;;;;;;5.20;3.67;;;30.70;68.60;;;;;;4974479;28;20446;-66
2022/08/15 09:09:29;;;;;;;4.00;3.40;;;30.20;70.50;;;;;;4974436;28;20479;-67
2022/08/15 09:11:59;;;;;;;5.13;3.20;;;30.30;71.80;;;;;;4975409;28;20442;-67
2022/08/15 09:14:30;;;;;;;3.60;3.33;;;30.60;71.00;;;;;;4978320;28;20450;-67
2022/08/15 09:17:03;;;;;;;4.17;3.20;;;31.30;70.10;;;;;;4978080;28;20442;-68
2022/08/15 09:19:40;;;;;;;3.27;3.07;;;32.20;68.00;;;;;;4978063;28;20888;-67
2022/08/15 09:22:08;;;;;;;3.03;2.83;;;32.80;65.40;;;;;;4978114;28;20438;-68
2022/08/15 09:24:35;;;;;;;2.73;2.63;;;33.40;62.20;;;;;;4977928;28;20458;-67
2022/08/15 09:27:10;;;;;;;3.47;3.17;;;34.00;59.90;;;;;;4977948;28;20457;-67
2022/08/15 09:29:42;;;;;;;4.47;2.93;;;33.20;59.40;;;;;;4977923;28;20521;-67
2022/08/15 09:32:22;;;;;;;2.83;2.63;;;33.60;58.80;;;;;;4977968;28;20476;-67
2022/08/15 09:35:13;;;;;;;3.10;2.80;;;33.90;58.30;;;;;;4978467;28;20481;-67
2022/08/15 09:38:11;;;;;;;2.67;2.47;;;34.70;57.40;;;;;;4977547;28;20442;-67
2022/08/15 09:41:00;;;;;;;2.57;2.40;;;35.40;56.00;;;;;;4977807;28;20481;-67
2022/08/15 09:43:55;;;;;;;3.37;2.60;;;35.90;52.90;;;;;;4965676;28;20494;-67
2022/08/15 09:46:50;;;;;;;2.60;2.40;;;35.50;52.70;;;;;;4977468;28;20977;-67
2022/08/15 09:49:32;;;;;;;2.87;2.70;;;34.90;53.50;;;;;;4977512;28;20511;-67
2022/08/15 09:52:13;;;;;;;2.93;2.73;;;33.90;55.00;;;;;;4977492;28;20442;-67
2022/08/15 09:54:46;;;;;;;2.90;2.80;;;33.70;55.70;;;;;;4977362;28;20450;-67
2022/08/15 09:57:34;;;;;;;3.00;2.80;;;33.20;57.60;;;;;;4981573;28;20493;-67
2022/08/15 10:00:06;;;;;;;3.20;2.73;;;33.10;58.40;;;;;;4984586;28;20563;-67
2022/08/15 10:02:34;;;;;;;4.13;3.00;;;32.80;56.90;;;;;;4981200;28;20439;-67
2022/08/15 10:05:24;;;;;;;2.70;2.47;;;32.40;58.40;;;;;;4977768;28;20467;-67
2022/08/15 10:07:55;;;;;;;2.20;2.03;;;32.10;59.20;;;;;;4977207;28;20803;-67
2022/08/15 10:10:47;;;;;;;3.83;2.40;;;32.50;58.30;;;;;;4977108;28;20479;-67
2022/08/15 10:13:45;;;;;;;2.50;2.37;;;33.50;57.90;;;;;;4977102;28;20461;-67
2022/08/15 10:16:46;;;;;;;1.90;1.80;;;34.40;54.40;;;;;;4976936;28;21016;-67
2022/08/15 10:19:31;;;;;;;1.93;1.80;;;35.50;54.20;;;;;;4976321;28;20889;-67
2022/08/15 10:22:00;;;;;;;1.70;1.70;;;36.40;51.80;;;;;;4976818;28;20476;-67
2022/08/15 10:24:32;;;;;;;1.90;1.90;;;36.70;49.90;;;;;;4976628;28;20454;-67
2022/08/15 10:27:15;;;;;;;2.50;2.30;;;36.90;50.40;;;;;;4976798;28;20445;-67
2022/08/15 10:29:48;;;;;;;1.97;1.87;;;37.50;49.10;;;;;;4976986;28;20485;-67
2022/08/15 10:32:34;;;;;;;2.50;1.80;;;37.80;49.00;;;;;;4976952;28;20449;-67
2022/08/15 10:35:05;;;;;;;1.53;1.50;;;37.40;48.20;;;;;;4977251;28;20505;-67
2022/08/15 10:37:37;;;;;;;2.20;1.87;;;37.50;48.30;;;;;;4976754;28;20446;-67
2022/08/15 10:40:50;;;;;;;2.03;1.93;;;37.60;48.60;;;;;;4977015;28;20474;-66
2022/08/15 10:43:32;;;;;;;2.10;2.00;;;37.90;48.10;;;;;;4976566;28;20461;-65
2022/08/15 10:46:06;;;;;;;1.90;1.80;;;38.00;46.40;;;;;;4976527;28;20509;-65
2022/08/15 10:48:49;;;;;;;2.00;1.90;;;38.00;47.00;;;;;;4976243;28;20779;-65
2022/08/15 10:51:31;;;;;;;1.80;1.80;;;37.20;47.60;;;;;;4976597;28;20450;-65
2022/08/15 10:54:10;;;;;;;2.73;1.80;;;37.00;47.70;;;;;;4976429;28;20438;-65
2022/08/15 10:56:39;;;;;;;2.10;2.00;;;36.80;48.70;;;;;;4976101;28;20894;-65
2022/08/15 10:59:12;;;;;;;1.90;1.80;;;37.10;47.20;;;;;;4976014;28;20533;-65
2022/08/15 11:01:40;;;;;;;1.77;1.67;;;36.60;47.80;;;;;;4977164;28;20959;-65
2022/08/15 11:04:09;;;;;;;2.73;2.53;;;36.80;47.50;;;;;;4976075;28;20458;-65
2022/08/15 11:06:41;;;;;;;3.37;1.83;;;37.00;47.40;;;;;;4975592;28;20505;-65
2022/08/15 11:09:09;;;;;;;2.10;2.00;;;37.10;47.60;;;;;;4976302;28;20474;-65
2022/08/15 11:11:42;;;;;;;3.90;2.00;;;37.20;46.90;;;;;;4976051;28;20462;-65
2022/08/15 11:14:18;;;;;;;1.80;1.77;;;37.40;46.30;;;;;;4975976;28;20446;-65
2022/08/15 11:16:51;;;;;;;1.90;1.80;;;36.90;47.60;;;;;;4975607;28;20969;-65
2022/08/15 11:19:20;;;;;;;1.63;1.60;;;36.90;47.10;;;;;;4975782;28;20517;-65
2022/08/15 11:21:50;;;;;;;3.77;1.77;;;36.80;47.30;;;;;;4975909;28;20458;-65
2022/08/15 11:24:28;;;;;;;1.60;1.50;;;36.20;48.00;;;;;;4975835;28;20460;-65
2022/08/15 11:27:13;;;;;;;1.73;1.63;;;35.60;49.00;;;;;;4975565;28;20473;-64
2022/08/15 11:29:41;;;;;;;2.20;2.10;;;35.00;49.00;;;;;;4975279;28;20482;-65
2022/08/15 11:32:08;;;;;;;2.20;2.00;;;34.90;50.10;;;;;;4975314;28;20801;-64
2022/08/15 11:34:37;;;;;;;2.13;2.00;;;34.90;50.10;;;;;;4974779;28;20818;-71
2022/08/15 11:37:12;;;;;;;2.57;2.00;;;34.60;50.40;;;;;;4975218;28;20997;-66
2022/08/15 11:39:42;;;;;;;2.13;1.70;;;34.20;50.40;;;;;;4975774;28;20484;-66
2022/08/15 11:42:17;;;;;;;4.10;2.53;;;34.00;52.30;;;;;;4975509;28;20802;-70
2022/08/15 11:44:50;;;;;;;2.07;1.97;;;33.80;51.80;;;;;;4975546;28;20438;-69
2022/08/15 11:47:18;;;;;;;2.27;2.17;;;33.90;51.40;;;;;;4975922;28;20490;-69
2022/08/15 11:49:50;;;;;;;2.43;1.77;;;33.70;52.20;;;;;;4975258;28;20478;-69
2022/08/15 11:52:24;;;;;;;2.50;2.30;;;33.60;52.30;;;;;;4975435;28;20445;-69
2022/08/15 11:55:12;;;;;;;2.33;2.13;;;33.60;53.60;;;;;;4975697;28;20574;-69
2022/08/15 11:57:43;;;;;;;2.57;2.23;;;33.70;52.00;;;;;;4975649;28;20484;-68
2022/08/15 12:00:15;;;;;;;2.13;1.83;;;33.80;52.80;;;;;;4975133;28;20997;-66
2022/08/15 12:02:42;;;;;;;2.47;2.27;;;34.00;51.60;;;;;;4975484;28;20446;-64
2022/08/15 12:05:13;;;;;;;1.90;1.80;;;34.20;51.30;;;;;;4975238;28;20457;-65
2022/08/15 12:07:44;;;;;;;2.00;1.90;;;34.30;50.90;;;;;;4975214;28;20447;-63
2022/08/15 12:10:25;;;;;;;2.47;2.37;;;34.30;51.00;;;;;;4975244;28;20481;-63
2022/08/15 12:12:54;;;;;;;2.47;2.23;;;34.20;50.50;;;;;;4975035;28;20525;-64
2022/08/15 12:15:25;;;;;;;4.57;2.63;;;34.00;50.50;;;;;;4974870;28;20937;-65
2022/08/15 12:18:04;;;;;;;2.80;2.60;;;34.10;50.90;;;;;;4975433;28;20457;-64
2022/08/15 12:20:38;;;;;;;2.27;2.07;;;34.30;50.40;;;;;;4975097;28;20477;-64
2022/08/15 12:23:24;;;;;;;1.90;1.80;;;34.20;51.60;;;;;;4975192;28;20918;-65
2022/08/15 12:25:52;;;;;;;2.27;2.07;;;34.30;50.60;;;;;;4975007;28;20803;-64
2022/08/15 12:28:20;;;;;;;2.53;2.40;;;34.20;50.60;;;;;;4975112;28;20458;-63
2022/08/15 12:30:47;;;;;;;2.67;2.53;;;33.70;50.40;;;;;;4974630;28;20482;-63
2022/08/15 12:33:15;;;;;;;2.40;2.20;;;33.50;51.90;;;;;;4974852;28;20434;-63
2022/08/15 12:35:42;;;;;;;2.97;2.73;;;33.30;51.00;;;;;;4974335;28;21016;-63
2022/08/15 12:38:09;;;;;;;2.33;2.13;;;33.20;52.00;;;;;;4975007;28;20486;-64
2022/08/15 12:40:36;;;;;;;2.33;2.17;;;33.30;51.50;;;;;;4974966;28;20477;-63
2022/08/15 12:43:03;;;;;;;2.40;2.30;;;33.40;51.40;;;;;;4974614;28;20518;-64
2022/08/15 12:45:31;;;;;;;5.30;2.50;;;33.30;52.00;;;;;;4975185;28;20446;-64
2022/08/15 12:47:58;;;;;;;2.90;2.20;;;33.30;51.20;;;;;;4978847;28;20454;-65
2022/08/15 12:50:25;;;;;;;2.47;2.37;;;33.30;52.00;;;;;;4978707;28;20506;-64
2022/08/15 12:52:51;;;;;;;2.40;2.23;;;33.40;51.20;;;;;;4978545;28;20454;-64
2022/08/15 12:55:18;;;;;;;3.17;2.20;;;33.30;50.30;;;;;;4978401;28;20461;-63
2022/08/15 12:57:45;;;;;;;2.90;2.60;;;33.40;52.80;;;;;;4978070;28;21016;-63
2022/08/15 13:00:13;;;;;;;4.43;2.20;;;33.40;51.30;;;;;;4978004;28;20470;-63
2022/08/15 13:02:41;;;;;;;2.80;2.60;;;33.50;50.40;;;;;;4978578;28;20461;-63
2022/08/15 13:05:20;;;;;;;2.83;2.53;;;33.50;52.00;;;;;;4978391;28;20796;-63
2022/08/15 13:07:46;;;;;;;2.77;2.67;;;33.70;50.60;;;;;;4978437;28;20445;-64
2022/08/15 13:10:17;;;;;;;2.87;2.33;;;34.00;50.20;;;;;;4978337;28;20479;-64
2022/08/15 13:12:44;;;;;;;2.77;2.50;;;33.50;50.00;;;;;;4978302;28;20439;-64
2022/08/15 13:15:11;;;;;;;11.00;3.43;;;33.10;50.10;;;;;;4978406;28;20458;-62
2022/08/15 13:17:37;;;;;;;2.60;2.40;;;33.00;51.60;;;;;;4981843;28;20478;-65
2022/08/15 13:25:35;;;;;;;3.43;3.13;;;32.50;51.40;;;;;;4979146;28;20773;-63
2022/08/15 13:28:02;;;;;;;3.90;2.83;;;32.10;51.00;;;;;;4978310;28;20462;-63
2022/08/15 13:30:29;;;;;;;2.63;2.43;;;31.90;50.50;;;;;;4977856;28;20490;-62
2022/08/15 13:32:56;;;;;;;5.40;3.00;;;31.60;51.00;;;;;;4977899;28;20465;-62
2022/08/15 13:35:24;;;;;;;3.33;3.03;;;31.60;51.70;;;;;;4978200;28;20458;-62
2022/08/15 13:37:50;;;;;;;3.23;3.03;;;31.60;51.60;;;;;;4978105;28;20489;-62
2022/08/15 13:40:23;;;;;;;3.90;2.50;;;31.70;51.60;;;;;;4977742;28;20482;-62
2022/08/15 13:42:51;;;;;;;2.83;2.73;;;31.70;52.30;;;;;;4977767;28;20473;-62
2022/08/15 13:45:18;;;;;;;3.10;2.90;;;31.60;52.00;;;;;;4977540;28;20465;-63
2022/08/15 13:47:46;;;;;;;2.90;2.80;;;31.60;52.50;;;;;;4977289;28;20768;-64
2022/08/15 13:50:14;;;;;;;2.67;2.47;;;31.50;52.80;;;;;;4977312;28;20481;-63
2022/08/15 13:52:42;;;;;;;2.73;2.63;;;31.40;53.10;;;;;;4977324;28;20451;-63
2022/08/15 13:55:09;;;;;;;2.77;2.50;;;31.30;53.20;;;;;;4977497;28;20819;-63
2022/08/15 13:57:36;;;;;;;2.90;2.70;;;31.20;53.50;;;;;;4976494;28;20478;-62
2022/08/15 14:00:10;;;;;;;3.67;3.10;;;31.00;53.90;;;;;;4977301;28;20484;-63
2022/08/15 14:02:40;;;;;;;3.33;3.07;;;30.60;53.80;;;;;;4977374;28;20434;-65
2022/08/15 14:05:09;;;;;;;2.90;2.70;;;30.20;54.40;;;;;;4976932;28;20455;-62
2022/08/15 14:07:36;;;;;;;3.67;3.37;;;30.00;56.10;;;;;;4977361;28;20457;-62
2022/08/15 14:10:06;;;;;;;2.83;2.63;;;29.70;57.90;;;;;;4977343;28;20833;-62
2022/08/15 14:12:32;;;;;;;2.93;2.73;;;29.50;58.20;;;;;;4977057;28;20455;-61
2022/08/15 14:14:59;;;;;;;3.17;2.87;;;29.30;58.80;;;;;;4977009;28;20462;-61
2022/08/15 14:17:26;;;;;;;2.67;2.47;;;29.00;58.30;;;;;;4976778;28;20985;-62
2022/08/15 14:19:53;;;;;;;3.10;2.77;;;28.90;57.50;;;;;;4976665;28;21053;-62
2022/08/15 14:22:20;;;;;;;3.07;2.50;;;28.60;58.00;;;;;;4976926;28;20465;-62
2022/08/15 14:24:47;;;;;;;2.80;2.57;;;28.70;59.70;;;;;;4977516;28;20449;-62
2022/08/15 14:27:15;;;;;;;3.00;2.90;;;28.90;59.30;;;;;;4976768;28;20442;-63
2022/08/15 14:29:43;;;;;;;3.30;3.10;;;29.00;59.40;;;;;;4976699;28;20518;-62
2022/08/15 14:32:13;;;;;;;3.10;2.90;;;29.00;59.70;;;;;;4976701;28;20462;-62
2022/08/15 14:34:40;;;;;;;5.00;3.10;;;29.00;60.80;;;;;;4976699;28;20977;-62
2022/08/15 14:37:11;;;;;;;3.33;3.00;;;28.80;59.90;;;;;;4976589;28;20483;-62
2022/08/15 14:39:38;;;;;;;3.53;3.00;;;28.60;59.80;;;;;;4976499;28;20502;-62
2022/08/15 14:42:06;;;;;;;3.03;2.80;;;28.50;59.30;;;;;;4976475;28;20918;-62
2022/08/15 14:44:35;;;;;;;3.23;2.93;;;28.30;59.80;;;;;;4976472;28;20470;-62
2022/08/15 14:47:02;;;;;;;3.43;2.87;;;28.10;60.00;;;;;;4976543;28;20485;-63
2022/08/15 14:49:30;;;;;;;3.33;3.03;;;27.90;61.80;;;;;;4976403;28;20571;-61